Time;durP1;ratioP1;P1;durP2;ratioP2;P2;SDS_P1;SDS_P2;PMS_P1;PMS_P2;Temp;Humidity;BMP_temperature;BMP_pressure;BME280_temperature;BME280_humidity;BME280_pressure;Samples;Min_cycle;Max_cycle;Signal;HPM_P1;HPM_P2
2023/05/22 00:01:06;;;;;;;;;19.75;19.50;;;;;15.97;73.54;100743.97;5039524;28;46157;-75
2023/05/22 00:03:32;;;;;;;;;20.75;20.75;;;;;15.94;73.63;100743.31;5044875;28;45190;-76
2023/05/22 00:05:57;;;;;;;;;22.25;22.25;;;;;15.96;73.96;100739.59;5061124;28;45207;-65
2023/05/22 00:08:24;;;;;;;;;18.50;18.50;;;;;15.88;73.48;100742.69;5042642;28;45399;-72
2023/05/22 00:10:50;;;;;;;;;21.00;21.00;;;;;15.81;73.71;100741.31;5040968;28;45444;-75
2023/05/22 00:13:15;;;;;;;;;20.25;20.25;;;;;15.76;74.28;100740.75;5036312;28;45186;-76
2023/05/22 00:15:40;;;;;;;;;18.75;18.75;;;;;15.73;74.33;100741.81;5035889;28;45247;-76
2023/05/22 00:18:07;;;;;;;;;20.00;20.00;;;;;15.68;73.96;100729.75;5036090;28;45223;-73
2023/05/22 00:20:37;;;;;;;;;22.25;22.25;;;;;15.60;74.44;100727.56;5035716;28;45474;-78
2023/05/22 00:23:03;;;;;;;;;16.00;16.00;;;;;15.66;74.27;100736.94;5035014;28;45400;-78
2023/05/22 00:25:28;;;;;;;;;19.50;18.00;;;;;15.59;74.56;100737.31;5035654;28;45269;-74
2023/05/22 00:27:53;;;;;;;;;21.00;19.50;;;;;15.53;74.98;100737.66;5036058;28;45585;-80
2023/05/22 00:30:19;;;;;;;;;24.00;23.75;;;;;15.49;75.22;100733.50;5034085;28;47546;-75
2023/05/22 00:32:44;;;;;;;;;21.50;21.50;;;;;15.48;75.20;100737.09;5036073;28;45343;-79
2023/05/22 00:35:09;;;;;;;;;24.75;24.75;;;;;15.45;75.55;100734.59;5035438;28;45189;-78
2023/05/22 00:37:35;;;;;;;;;19.25;19.25;;;;;15.45;75.03;100730.19;5035701;28;45180;-80
2023/05/22 00:40:00;;;;;;;;;17.00;17.00;;;;;15.47;75.51;100730.06;5035084;28;46243;-81
2023/05/22 00:42:25;;;;;;;;;19.25;19.25;;;;;15.51;75.24;100736.91;5035193;28;45242;-80
2023/05/22 00:44:51;;;;;;;;;17.50;17.50;;;;;15.55;74.64;100745.53;5035481;28;45199;-78
2023/05/22 00:47:16;;;;;;;;;19.75;19.75;;;;;15.47;74.60;100738.91;5035640;28;45387;-79
2023/05/22 00:49:42;;;;;;;;;20.50;20.50;;;;;15.47;75.16;100741.53;5034990;28;45436;-80
2023/05/22 00:52:09;;;;;;;;;23.25;23.00;;;;;15.44;74.75;100735.56;5035337;28;45460;-78
2023/05/22 00:54:35;;;;;;;;;27.75;27.75;;;;;15.43;74.92;100733.84;5035803;28;45461;-76
2023/05/22 00:57:01;;;;;;;;;30.00;28.50;;;;;15.46;75.01;100734.53;5034756;28;45522;-79
2023/05/22 00:59:28;;;;;;;;;30.75;30.25;;;;;15.49;74.84;100736.13;5034972;28;48016;-79
2023/05/22 01:01:55;;;;;;;;;36.00;32.00;;;;;15.51;74.97;100730.75;5034968;28;45244;-75
2023/05/22 01:04:21;;;;;;;;;30.50;30.25;;;;;15.47;74.82;100724.78;5050655;28;45212;-72
2023/05/22 01:06:47;;;;;;;;;29.75;29.50;;;;;15.48;74.92;100724.69;5035416;28;45391;-80
2023/05/22 01:09:13;;;;;;;;;27.00;27.00;;;;;15.43;74.71;100721.47;5034838;28;46231;-79
2023/05/22 01:11:44;;;;;;;;;26.75;26.75;;;;;15.44;74.84;100720.53;5034748;28;45477;-80
2023/05/22 01:14:30;;;;;;;;;22.25;22.25;;;;;15.37;73.93;100713.00;5034739;28;45339;-80
2023/05/22 01:17:07;;;;;;;;;24.00;22.50;;;;;15.34;74.99;100716.66;5035180;28;45232;-76
2023/05/22 01:19:59;;;;;;;;;20.50;20.50;;;;;15.32;74.52;100716.78;5034096;28;48262;-80
2023/05/22 01:22:25;;;;;;;;;21.25;21.00;;;;;15.33;74.77;100720.25;5035383;28;45338;-76
2023/05/22 01:25:08;;;;;;;;;21.75;21.75;;;;;15.36;74.87;100717.44;5035457;28;45292;-82
2023/05/22 01:28:02;;;;;;;;;18.75;18.75;;;;;15.38;74.64;100717.34;5036285;28;45410;-77
2023/05/22 01:30:55;;;;;;;;;18.50;18.00;;;;;15.36;74.66;100712.13;5014731;28;46614;-78
2023/05/22 01:33:24;;;;;;;;;19.25;19.25;;;;;15.33;74.43;100721.13;5040991;28;45351;-81
2023/05/22 01:35:52;;;;;;;;;19.25;16.50;;;;;15.28;74.39;100709.94;5042273;28;45241;-77
2023/05/22 01:38:19;;;;;;;;;17.75;17.75;;;;;15.31;74.07;100717.72;5042411;28;45284;-71
2023/05/22 01:40:45;;;;;;;;;19.00;17.75;;;;;15.27;74.29;100717.97;5037822;28;45371;-70
2023/05/22 01:43:13;;;;;;;;;17.00;17.00;;;;;15.25;74.37;100718.06;5037932;28;45401;-67
2023/05/22 01:45:38;;;;;;;;;17.00;17.00;;;;;15.25;74.78;100715.44;5037946;28;45510;-68
2023/05/22 01:48:03;;;;;;;;;14.50;14.50;;;;;15.24;74.86;100710.19;5038349;28;45544;-75
2023/05/22 01:50:29;;;;;;;;;15.00;15.00;;;;;15.33;74.15;100725.56;5038902;28;45443;-74
2023/05/22 01:53:02;;;;;;;;;15.75;15.75;;;;;15.32;73.73;100715.91;5041242;28;45276;-71
2023/05/22 01:55:34;;;;;;;;;15.00;15.00;;;;;15.26;74.07;100719.78;5040708;28;45304;-75
2023/05/22 01:58:07;;;;;;;;;15.50;15.50;;;;;15.26;74.28;100708.31;5043179;28;45355;-73
2023/05/22 02:00:34;;;;;;;;;21.00;21.00;;;;;15.26;74.07;100718.91;5037400;28;45563;-69
2023/05/22 02:03:07;;;;;;;;;18.75;18.75;;;;;15.25;74.09;100712.78;5037307;28;45454;-77
2023/05/22 02:05:36;;;;;;;;;19.25;19.25;;;;;15.27;73.96;100724.13;5037187;28;45330;-69
2023/05/22 02:08:03;;;;;;;;;16.00;16.00;;;;;15.25;74.38;100720.72;5036240;28;45399;-69
2023/05/22 02:10:31;;;;;;;;;20.00;20.00;;;;;15.25;74.19;100719.84;5036942;28;45653;-79
2023/05/22 02:12:56;;;;;;;;;18.50;18.50;;;;;15.24;74.27;100719.00;5037178;28;45283;-75
2023/05/22 02:15:22;;;;;;;;;20.00;19.00;;;;;15.24;74.57;100721.66;5037606;28;45343;-79
2023/05/22 02:17:48;;;;;;;;;16.00;15.50;;;;;15.25;74.19;100722.50;5037424;28;45649;-71
2023/05/22 02:20:14;;;;;;;;;18.00;18.00;;;;;15.15;74.54;100714.25;5037068;28;45485;-74
2023/05/22 02:22:45;;;;;;;;;18.75;18.75;;;;;15.15;75.08;100719.56;5037199;28;45446;-79
2023/05/22 02:25:13;;;;;;;;;15.50;15.50;;;;;15.08;74.88;100710.25;5037663;28;45328;-77
2023/05/22 02:27:48;;;;;;;;;13.75;13.75;;;;;15.05;74.82;100719.22;5037337;28;45542;-80
2023/05/22 02:30:14;;;;;;;;;16.25;15.00;;;;;15.01;74.53;100715.88;5036993;28;46532;-77
2023/05/22 02:32:40;;;;;;;;;15.50;15.50;;;;;14.95;75.31;100715.38;5037042;28;45419;-72
2023/05/22 02:35:07;;;;;;;;;12.75;12.75;;;;;14.94;74.92;100714.53;5037196;28;45772;-77
2023/05/22 02:37:32;;;;;;;;;17.75;17.75;;;;;14.90;75.24;100713.00;5037314;28;45609;-79
2023/05/22 02:39:57;;;;;;;;;15.00;14.00;;;;;14.86;75.78;100709.66;5037136;28;46172;-77
2023/05/22 02:42:23;;;;;;;;;18.25;17.75;;;;;14.84;75.73;100710.66;5038201;28;45273;-78
2023/05/22 02:44:48;;;;;;;;;16.50;16.50;;;;;14.88;75.81;100721.00;5038421;28;45240;-82
2023/05/22 02:47:14;;;;;;;;;19.75;18.25;;;;;14.84;75.96;100714.19;5038125;28;45358;-82
2023/05/22 02:49:39;;;;;;;;;19.00;19.00;;;;;14.81;75.66;100708.19;5053274;28;47950;-70
2023/05/22 02:52:05;;;;;;;;;18.25;18.25;;;;;14.79;76.11;100695.06;5038035;28;45320;-69
2023/05/22 02:54:30;;;;;;;;;17.00;17.00;;;;;14.78;75.91;100709.22;5037241;28;45265;-73
2023/05/22 02:56:55;;;;;;;;;18.00;18.00;;;;;14.78;76.04;100698.63;5037796;28;45254;-66
2023/05/22 02:59:21;;;;;;;;;20.00;20.00;;;;;14.75;76.03;100698.81;5036250;28;47647;-72
2023/05/22 03:01:47;;;;;;;;;17.00;15.75;;;;;14.72;75.86;100699.81;5036905;28;52203;-78
2023/05/22 03:04:12;;;;;;;;;18.75;17.50;;;;;14.69;76.41;100707.91;5036320;28;45448;-77
2023/05/22 03:06:38;;;;;;;;;15.00;15.00;;;;;14.62;76.57;100711.84;5037706;28;45372;-81
2023/05/22 03:09:04;;;;;;;;;18.50;18.50;;;;;14.60;76.84;100714.59;5037555;28;46038;-69
2023/05/22 03:11:33;;;;;;;;;18.50;18.50;;;;;14.60;77.03;100725.16;5052789;28;45462;-70
2023/05/22 03:13:59;;;;;;;;;18.75;18.75;;;;;14.58;76.68;100719.09;5038098;28;45174;-66
2023/05/22 03:16:25;;;;;;;;;20.25;19.75;;;;;14.55;76.97;100706.03;5040295;28;45653;-66
2023/05/22 03:18:53;;;;;;;;;18.75;16.50;;;;;14.56;77.28;100713.03;5058663;28;48089;-75
2023/05/22 03:21:18;;;;;;;;;16.50;16.50;;;;;14.56;77.69;100720.13;5040416;28;45856;-71
2023/05/22 03:23:44;;;;;;;;;19.75;19.00;;;;;14.56;77.14;100720.13;5039455;28;45385;-65
2023/05/22 03:26:10;;;;;;;;;20.00;20.00;;;;;14.46;76.94;100715.31;5038578;28;45370;-69
2023/05/22 03:28:35;;;;;;;;;13.50;13.50;;;;;14.43;77.20;100712.84;5037736;28;45620;-76
2023/05/22 03:31:00;;;;;;;;;17.75;17.75;;;;;14.44;77.25;100711.91;5036162;28;45477;-66
2023/05/22 03:33:26;;;;;;;;;18.00;18.00;;;;;14.42;77.74;100707.66;5037098;28;45379;-75
2023/05/22 03:35:52;;;;;;;;;19.75;19.75;;;;;14.37;78.04;100707.06;5035093;28;46757;-71
2023/05/22 03:38:17;;;;;;;;;17.25;17.25;;;;;14.44;77.69;100714.56;5037842;28;46016;-67
2023/05/22 03:40:42;;;;;;;;;17.00;17.00;;;;;14.42;77.70;100708.50;5040651;28;45352;-69
2023/05/22 03:43:08;;;;;;;;;18.25;17.75;;;;;14.40;77.95;100702.44;5042183;28;45232;-68
2023/05/22 03:45:33;;;;;;;;;19.00;17.75;;;;;14.29;77.84;100684.47;5042945;28;45667;-65
2023/05/22 03:47:58;;;;;;;;;19.75;18.00;;;;;14.32;78.30;100696.69;5037201;28;46157;-76
2023/05/22 03:50:24;;;;;;;;;16.25;16.25;;;;;14.31;78.16;100697.63;5036897;28;45368;-75
2023/05/22 03:52:49;;;;;;;;;14.75;14.75;;;;;14.27;78.32;100693.44;5034931;28;45572;-67
2023/05/22 03:55:15;;;;;;;;;17.50;17.50;;;;;14.25;78.72;100705.91;5036282;28;45245;-64
2023/05/22 03:57:40;;;;;;;;;18.25;18.25;;;;;14.21;78.88;100707.00;5034871;28;45840;-72
2023/05/22 04:00:10;;;;;;;;;13.00;13.00;;;;;14.17;79.17;100709.81;5036048;28;45260;-74
2023/05/22 04:02:38;;;;;;;;;18.50;18.50;;;;;14.12;78.78;100714.50;5034936;28;45820;-74
2023/05/22 04:05:08;;;;;;;;;17.25;17.25;;;;;14.05;78.81;100715.75;5034729;28;45379;-79
2023/05/22 04:07:33;;;;;;;;;19.75;19.25;;;;;14.05;78.87;100722.81;5036765;28;46668;-70
2023/05/22 04:09:58;;;;;;;;;17.25;17.25;;;;;14.00;79.65;100718.63;5037152;28;45406;-75
2023/05/22 04:12:24;;;;;;;;;15.75;15.75;;;;;13.97;80.10;100729.38;5037000;28;45422;-71
2023/05/22 04:14:49;;;;;;;;;19.50;19.50;;;;;13.98;80.02;100724.97;5037360;28;45327;-76
2023/05/22 04:17:15;;;;;;;;;18.25;18.25;;;;;13.96;79.65;100729.47;5052393;28;47315;-66
2023/05/22 04:19:40;;;;;;;;;16.75;16.50;;;;;13.99;80.07;100734.59;5036565;28;45376;-71
2023/05/22 04:22:05;;;;;;;;;18.75;18.75;;;;;14.01;80.36;100736.22;5035105;28;45776;-73
2023/05/22 04:24:31;;;;;;;;;20.50;20.00;;;;;14.02;80.23;100730.00;5037244;28;45776;-77
2023/05/22 04:26:59;;;;;;;;;16.25;16.25;;;;;14.06;80.53;100733.34;5035550;28;46393;-67
2023/05/22 04:29:25;;;;;;;;;20.00;20.00;;;;;14.07;80.07;100731.53;5034569;28;46224;-74
2023/05/22 04:31:53;;;;;;;;;19.75;19.75;;;;;14.09;79.88;100730.53;5036912;28;45417;-74
2023/05/22 04:34:19;;;;;;;;;19.00;17.75;;;;;14.10;80.46;100739.31;5037191;28;45364;-71
2023/05/22 04:36:45;;;;;;;;;14.75;14.75;;;;;14.15;79.99;100747.84;5036901;28;45495;-75
2023/05/22 04:39:12;;;;;;;;;14.75;14.75;;;;;14.12;79.86;100743.59;5036089;28;45369;-72
2023/05/22 04:41:39;;;;;;;;;18.00;18.00;;;;;14.05;80.02;100729.00;5037615;28;45242;-63
2023/05/22 04:44:05;;;;;;;;;20.00;20.00;;;;;14.00;79.96;100721.28;5035592;28;45478;-66
2023/05/22 04:46:31;;;;;;;;;17.25;17.25;;;;;14.26;80.19;100749.94;5036561;28;46466;-74
2023/05/22 04:49:00;;;;;;;;;19.00;19.00;;;;;14.31;80.06;100759.38;5039178;28;45285;-76
2023/05/22 04:51:26;;;;;;;;;20.00;18.75;;;;;14.29;80.08;100742.69;5040802;28;45165;-70
2023/05/22 04:53:54;;;;;;;;;20.25;18.75;;;;;14.41;79.63;100759.72;5043936;28;45390;-65
2023/05/22 04:56:20;;;;;;;;;19.75;19.75;;;;;14.45;79.71;100755.97;5044363;28;46564;-71
2023/05/22 04:58:47;;;;;;;;;18.25;18.25;;;;;14.48;79.00;100747.00;5043758;28;45377;-76
2023/05/22 05:01:13;;;;;;;;;17.75;17.75;;;;;14.55;79.07;100751.03;5043531;28;45409;-78
2023/05/22 05:03:38;;;;;;;;;19.75;19.00;;;;;14.58;79.13;100740.28;5051546;28;45621;-72
2023/05/22 05:06:04;;;;;;;;;18.75;18.75;;;;;14.62;78.41;100743.59;5035932;28;45431;-68
2023/05/22 05:08:29;;;;;;;;;19.50;19.50;;;;;14.67;78.42;100753.94;5036304;28;45430;-68
2023/05/22 05:10:55;;;;;;;;;15.50;15.50;;;;;14.66;78.42;100757.53;5039150;28;45253;-64
2023/05/22 05:13:20;;;;;;;;;17.75;17.50;;;;;14.68;78.33;100760.97;5038903;28;45406;-63
2023/05/22 05:15:45;;;;;;;;;14.25;14.25;;;;;14.63;78.27;100753.25;5038931;28;46451;-77
2023/05/22 05:18:11;;;;;;;;;17.75;17.75;;;;;14.58;78.50;100752.66;5039078;28;45434;-78
2023/05/22 05:20:36;;;;;;;;;20.25;20.25;;;;;14.55;78.54;100751.03;5039074;28;45411;-65
2023/05/22 05:23:02;;;;;;;;;19.25;19.25;;;;;14.57;78.91;100753.59;5039640;28;45314;-64
2023/05/22 05:25:27;;;;;;;;;16.50;16.50;;;;;14.52;78.62;100739.75;5040620;28;46319;-64
2023/05/22 05:27:52;;;;;;;;;21.00;20.00;;;;;14.59;78.84;100742.00;5044858;28;45162;-64
2023/05/22 05:30:18;;;;;;;;;17.75;17.75;;;;;14.56;78.56;100741.28;5044366;28;60002;-68
2023/05/22 05:32:43;;;;;;;;;20.50;20.50;;;;;14.51;78.71;100732.75;5044102;28;45458;-67
2023/05/22 05:35:09;;;;;;;;;19.00;19.00;;;;;14.50;79.14;100737.19;5058024;28;47782;-73
2023/05/22 05:37:34;;;;;;;;;15.50;15.00;;;;;14.46;78.57;100739.16;5040949;28;45280;-77
2023/05/22 05:39:59;;;;;;;;;18.00;18.00;;;;;14.42;78.85;100739.41;5040020;28;49255;-80
2023/05/22 05:42:25;;;;;;;;;14.50;14.50;;;;;14.44;79.16;100746.31;5040335;28;45169;-70
2023/05/22 05:44:50;;;;;;;;;22.25;20.25;;;;;14.48;79.08;100749.66;5040624;28;45228;-79
2023/05/22 05:47:16;;;;;;;;;17.75;17.75;;;;;14.50;79.25;100757.50;5039829;28;45205;-77
2023/05/22 05:49:42;;;;;;;;;17.00;17.00;;;;;14.45;79.41;100749.81;5037949;28;45258;-68
2023/05/22 05:52:07;;;;;;;;;19.25;19.25;;;;;14.39;79.05;100737.75;5040056;28;45413;-74
2023/05/22 05:54:32;;;;;;;;;22.75;22.75;;;;;14.45;79.36;100737.44;5036866;28;47159;-68
2023/05/22 05:56:58;;;;;;;;;15.75;15.75;;;;;14.49;79.34;100742.56;5038419;28;45516;-76
2023/05/22 05:59:23;;;;;;;;;21.00;20.25;;;;;14.50;79.30;100753.09;5038550;28;45918;-77
2023/05/22 06:01:49;;;;;;;;;23.50;21.50;;;;;14.45;79.56;100737.44;5038606;28;45615;-69
2023/05/22 06:04:14;;;;;;;;;19.00;19.00;;;;;14.50;79.34;100736.34;5036990;28;48054;-74
2023/05/22 06:06:41;;;;;;;;;18.75;18.75;;;;;14.58;79.80;100742.06;5037882;28;45463;-79
2023/05/22 06:09:06;;;;;;;;;22.50;22.50;;;;;14.63;79.26;100744.47;5039571;28;45485;-86
2023/05/22 06:11:32;;;;;;;;;21.25;21.25;;;;;14.69;79.63;100739.69;5040391;28;45319;-70
2023/05/22 06:14:01;;;;;;;;;20.50;20.50;;;;;14.79;78.87;100740.06;5039526;28;45475;-81
2023/05/22 06:16:27;;;;;;;;;19.00;19.00;;;;;14.81;78.97;100746.13;5039956;28;45352;-75
2023/05/22 06:18:53;;;;;;;;;22.75;22.75;;;;;14.89;78.45;100740.44;5041341;28;45407;-74
2023/05/22 06:21:21;;;;;;;;;19.00;19.00;;;;;14.96;78.61;100740.91;5046938;28;45537;-63
2023/05/22 06:23:47;;;;;;;;;19.00;18.25;;;;;15.06;77.94;100749.22;5050007;28;45451;-81
2023/05/22 06:26:13;;;;;;;;;18.50;18.50;;;;;15.03;77.59;100745.78;5047128;28;44732;-65
2023/05/22 06:28:39;;;;;;;;;21.50;21.50;;;;;15.04;78.06;100741.34;5043394;28;45247;-68
2023/05/22 06:31:04;;;;;;;;;19.00;19.00;;;;;15.11;77.74;100755.09;5040748;28;45593;-77
2023/05/22 06:33:30;;;;;;;;;21.75;21.75;;;;;15.15;77.66;100756.63;5038994;28;45424;-77
2023/05/22 06:35:56;;;;;;;;;20.75;20.75;;;;;15.23;77.85;100756.19;5038705;28;45364;-76
2023/05/22 06:38:21;;;;;;;;;15.00;15.00;;;;;15.32;77.35;100753.88;5037706;28;45279;-82
2023/05/22 06:40:46;;;;;;;;;17.00;17.00;;;;;15.40;77.06;100763.19;5053146;28;45259;-78
2023/05/22 06:43:12;;;;;;;;;19.50;19.50;;;;;15.44;76.73;100765.59;5037676;28;46507;-72
2023/05/22 06:45:37;;;;;;;;;17.00;17.00;;;;;15.50;76.61;100768.81;5037245;28;45435;-65
2023/05/22 06:48:03;;;;;;;;;19.75;19.75;;;;;15.54;76.21;100765.88;5036697;28;45408;-65
2023/05/22 06:50:30;;;;;;;;;19.00;19.00;;;;;15.62;76.07;100768.09;5037101;28;45237;-67
2023/05/22 06:52:55;;;;;;;;;23.50;23.50;;;;;15.66;76.03;100769.63;5036950;28;45906;-69
2023/05/22 06:55:21;;;;;;;;;19.00;19.00;;;;;15.71;75.32;100772.00;5036703;28;45371;-64
2023/05/22 06:57:46;;;;;;;;;18.50;18.50;;;;;15.69;75.47;100771.22;5036694;28;45346;-65
2023/05/22 07:00:12;;;;;;;;;22.75;21.00;;;;;15.77;75.84;100767.19;5037107;28;45315;-71
2023/05/22 07:02:38;;;;;;;;;21.00;21.00;;;;;15.90;75.69;100771.81;5037066;28;47324;-70
2023/05/22 07:05:04;;;;;;;;;23.25;23.25;;;;;16.10;75.03;100777.72;5036693;28;45481;-68
2023/05/22 07:07:30;;;;;;;;;19.25;19.25;;;;;16.19;74.48;100774.50;5036337;28;45563;-81
2023/05/22 07:09:55;;;;;;;;;22.25;22.25;;;;;16.27;73.93;100776.69;5037116;28;45209;-72
2023/05/22 07:12:24;;;;;;;;;19.75;19.75;;;;;16.33;73.69;100773.66;5038460;28;46443;-68
2023/05/22 07:14:50;;;;;;;;;17.50;17.50;;;;;16.41;73.56;100774.03;5041593;28;45327;-73
2023/05/22 07:17:15;;;;;;;;;19.00;19.00;;;;;16.48;73.14;100783.34;5039552;28;45263;-74
2023/05/22 07:19:41;;;;;;;;;18.75;18.75;;;;;16.60;72.74;100776.41;5039608;28;45425;-72
2023/05/22 07:22:06;;;;;;;;;20.25;20.25;;;;;16.73;72.44;100780.94;5035820;28;59580;-79
2023/05/22 07:24:31;;;;;;;;;21.25;21.25;;;;;16.89;72.04;100776.38;5037076;28;45312;-79
2023/05/22 07:26:56;;;;;;;;;17.00;17.00;;;;;17.01;71.48;100782.75;5036546;28;45466;-81
2023/05/22 07:29:22;;;;;;;;;16.25;16.25;;;;;17.07;71.00;100789.47;5034905;28;45471;-80
2023/05/22 07:31:47;;;;;;;;;20.00;20.00;;;;;17.15;70.56;100786.31;5035001;28;59507;-80
2023/05/22 07:34:12;;;;;;;;;20.50;20.50;;;;;17.20;70.52;100785.06;5035703;28;45279;-80
2023/05/22 07:36:38;;;;;;;;;14.75;14.75;;;;;17.24;70.21;100791.03;5036353;28;56471;-78
2023/05/22 07:39:04;;;;;;;;;19.00;17.50;;;;;17.27;70.28;100792.63;5037342;28;45578;-74
2023/05/22 07:41:29;;;;;;;;;19.50;19.50;;;;;17.33;69.87;100803.72;5036292;28;45719;-76
2023/05/22 07:43:55;;;;;;;;;22.00;22.00;;;;;17.47;69.53;100799.31;5036074;28;45240;-75
2023/05/22 07:46:20;;;;;;;;;23.25;23.25;;;;;17.61;69.55;100807.22;5036623;28;45268;-78
2023/05/22 07:48:45;;;;;;;;;21.00;21.00;;;;;17.77;68.55;100803.53;5035975;28;45586;-70
2023/05/22 07:51:12;;;;;;;;;19.25;19.25;;;;;17.87;68.55;100801.13;5036175;28;45739;-73
2023/05/22 07:53:37;;;;;;;;;23.00;23.00;;;;;18.02;68.28;100801.91;5035785;28;45543;-73
2023/05/22 07:56:03;;;;;;;;;17.25;16.75;;;;;18.19;67.67;100814.06;5035794;28;45323;-75
2023/05/22 07:58:28;;;;;;;;;18.75;18.75;;;;;18.22;67.08;100812.06;5036169;28;45435;-76
2023/05/22 08:00:54;;;;;;;;;18.00;17.75;;;;;18.32;66.57;100808.75;5034108;28;47261;-74
2023/05/22 08:03:20;;;;;;;;;18.25;17.50;;;;;18.38;66.40;100803.84;5034448;28;45372;-70
2023/05/22 08:05:46;;;;;;;;;18.25;18.25;;;;;18.40;66.22;100798.41;5036303;28;45397;-80
2023/05/22 08:08:11;;;;;;;;;20.25;20.25;;;;;18.51;65.88;100806.50;5034970;28;45613;-77
2023/05/22 08:10:37;;;;;;;;;20.50;20.25;;;;;18.46;65.32;100797.13;5036116;28;54558;-79
2023/05/22 08:13:05;;;;;;;;;23.75;23.00;;;;;18.51;65.69;100814.50;5036504;28;45290;-77
2023/05/22 08:15:31;;;;;;;;;21.00;21.00;;;;;18.52;65.18;100810.88;5042822;28;45229;-75
2023/05/22 08:17:56;;;;;;;;;12.50;12.50;;;;;18.49;65.22;100810.22;5049734;28;44735;-77
2023/05/22 08:20:22;;;;;;;;;22.00;22.00;;;;;18.39;65.13;100802.88;5046950;28;45328;-74
2023/05/22 08:22:47;;;;;;;;;23.00;22.75;;;;;18.46;65.21;100816.63;5058585;28;45191;-67
2023/05/22 08:25:12;;;;;;;;;23.00;23.00;;;;;18.52;65.25;100820.66;5036758;28;45444;-80
2023/05/22 08:27:38;;;;;;;;;18.25;18.25;;;;;18.54;65.42;100821.41;5037845;28;45362;-80
2023/05/22 08:30:04;;;;;;;;;20.75;20.75;;;;;18.48;65.22;100820.03;5036107;28;45399;-69
2023/05/22 08:32:29;;;;;;;;;22.25;22.25;;;;;18.35;65.10;100825.34;5036020;28;45377;-76
2023/05/22 08:34:54;;;;;;;;;22.00;22.00;;;;;18.30;65.08;100826.66;5035902;28;45524;-71
2023/05/22 08:37:20;;;;;;;;;31.00;30.00;;;;;18.33;65.46;100827.28;5034946;28;45300;-65
2023/05/22 08:39:45;;;;;;;;;22.75;20.50;;;;;18.36;65.37;100829.72;5035283;28;47089;-64
2023/05/22 08:42:11;;;;;;;;;24.00;22.25;;;;;18.37;65.43;100827.94;5034800;28;45468;-65
2023/05/22 08:44:36;;;;;;;;;20.25;20.25;;;;;18.43;65.78;100826.63;5034262;28;45248;-74
2023/05/22 08:47:08;;;;;;;;;21.50;21.50;;;;;18.48;65.66;100829.81;5050513;28;45377;-75
2023/05/22 08:49:34;;;;;;;;;21.25;21.25;;;;;18.51;65.28;100829.63;5033262;28;45873;-68
2023/05/22 08:52:06;;;;;;;;;22.00;22.00;;;;;18.53;65.53;100827.69;5034436;28;45346;-72
2023/05/22 08:54:35;;;;;;;;;23.75;23.75;;;;;18.54;65.46;100824.06;5034052;28;45276;-71
2023/05/22 08:57:01;;;;;;;;;25.75;25.75;;;;;18.55;65.21;100833.75;5035056;28;45478;-81
2023/05/22 08:59:28;;;;;;;;;23.75;22.00;;;;;18.55;64.92;100828.44;5035933;28;46476;-76
2023/05/22 09:01:53;;;;;;;;;20.25;20.25;;;;;18.52;65.12;100829.53;5035804;28;45380;-75
2023/05/22 09:04:22;;;;;;;;;25.00;25.00;;;;;18.56;65.31;100829.31;5035122;28;45218;-76
2023/05/22 09:06:48;;;;;;;;;21.50;21.50;;;;;18.66;65.40;100835.69;5051272;28;45541;-72
2023/05/22 09:09:13;;;;;;;;;19.25;19.25;;;;;18.78;65.34;100834.81;5034854;28;46054;-73
2023/05/22 09:11:39;;;;;;;;;24.75;24.75;;;;;18.93;64.95;100830.22;5035544;28;45425;-77
2023/05/22 09:14:08;;;;;;;;;22.00;22.00;;;;;19.09;64.60;100842.47;5036112;28;45301;-79
2023/05/22 09:16:43;;;;;;;;;24.00;24.00;;;;;19.17;64.86;100831.25;5035532;28;45239;-72
2023/05/22 09:19:10;;;;;;;;;22.25;22.25;;;;;19.26;64.09;100838.59;5034795;28;46397;-73
2023/05/22 09:21:36;;;;;;;;;22.25;22.25;;;;;19.34;64.15;100833.53;5034324;28;45405;-80
2023/05/22 09:24:02;;;;;;;;;21.50;21.50;;;;;19.42;64.11;100831.16;5034089;28;45241;-71
2023/05/22 09:26:28;;;;;;;;;24.50;24.50;;;;;19.55;63.15;100843.59;5034401;28;45305;-80
2023/05/22 09:28:53;;;;;;;;;22.25;22.25;;;;;19.61;63.21;100835.13;5049594;28;48134;-79
2023/05/22 09:31:18;;;;;;;;;20.00;20.00;;;;;19.69;63.45;100824.72;5034574;28;45304;-79
2023/05/22 09:33:44;;;;;;;;;25.75;25.75;;;;;19.90;62.78;100840.13;5035005;28;45307;-81
2023/05/22 09:36:10;;;;;;;;;22.00;22.00;;;;;19.93;62.91;100841.72;5035913;28;45272;-74
2023/05/22 09:38:36;;;;;;;;;26.50;26.50;;;;;19.99;62.46;100836.75;5035599;28;45329;-78
2023/05/22 09:41:01;;;;;;;;;31.50;30.25;;;;;20.05;62.41;100837.25;5035600;28;45286;-78
2023/05/22 09:43:27;;;;;;;;;20.00;20.00;;;;;20.20;62.73;100837.91;5036888;28;45402;-80
2023/05/22 09:46:15;;;;;;;;;22.75;22.75;;;;;20.28;61.82;100832.81;5039323;28;45286;-69
2023/05/22 09:48:40;;;;;;;;;24.50;24.50;;;;;20.39;61.61;100837.34;5035229;28;45557;-78
2023/05/22 09:51:07;;;;;;;;;18.00;18.00;;;;;20.55;61.40;100834.31;5034490;28;45361;-81
2023/05/22 09:53:33;;;;;;;;;20.75;20.75;;;;;20.48;61.05;100819.72;5034631;28;45483;-77
2023/05/22 09:56:00;;;;;;;;;25.00;25.00;;;;;20.70;61.08;100840.28;5034544;28;45417;-71
2023/05/22 09:58:29;;;;;;;;;24.25;24.25;;;;;20.81;60.96;100842.13;5038243;28;46591;-78
2023/05/22 10:00:56;;;;;;;;;29.00;27.00;;;;;20.90;60.72;100833.38;5037127;28;45253;-79
2023/05/22 10:03:23;;;;;;;;;25.75;25.75;;;;;20.96;60.41;100834.69;5038271;28;45284;-75
2023/05/22 10:05:54;;;;;;;;;30.25;29.25;;;;;21.01;60.31;100830.69;5039243;28;45401;-77
2023/05/22 10:08:31;;;;;;;;;25.50;25.25;;;;;21.04;59.98;100823.41;5039444;28;46228;-72
2023/05/22 10:10:57;;;;;;;;;26.00;26.00;;;;;21.00;60.07;100834.34;5036649;28;45522;-69
2023/05/22 10:13:23;;;;;;;;;25.00;25.00;;;;;20.99;60.18;100821.06;5036588;28;45585;-69
2023/05/22 10:15:50;;;;;;;;;28.25;28.25;;;;;21.07;60.10;100823.16;5037061;28;45320;-70
2023/05/22 10:18:16;;;;;;;;;27.25;27.25;;;;;21.12;59.98;100820.94;5038072;28;46355;-67
2023/05/22 10:20:43;;;;;;;;;28.50;28.50;;;;;21.12;59.74;100807.56;5038225;28;45383;-74
2023/05/22 10:23:09;;;;;;;;;44.75;38.25;;;;;21.22;59.78;100818.38;5037352;28;45274;-66
2023/05/22 10:25:37;;;;;;;;;28.25;28.25;;;;;21.24;59.66;100814.59;5038129;28;45589;-78
2023/05/22 10:28:03;;;;;;;;;24.00;24.00;;;;;21.31;59.69;100810.44;5038091;28;45300;-75
2023/05/22 10:30:43;;;;;;;;;27.50;26.25;;;;;21.40;59.73;100813.34;5036230;28;45835;-64
2023/05/22 10:33:15;;;;;;;;;23.00;23.00;;;;;21.43;59.49;100811.25;5037734;28;45253;-70
2023/05/22 10:36:01;;;;;;;;;22.75;22.75;;;;;21.37;58.79;100814.44;5038349;28;45627;-76
2023/05/22 10:38:32;;;;;;;;;24.00;24.00;;;;;21.33;58.97;100813.00;5036555;28;47236;-75
2023/05/22 10:40:58;;;;;;;;;29.00;28.00;;;;;21.40;59.34;100821.34;5037199;28;45486;-71
2023/05/22 10:43:28;;;;;;;;;29.75;28.75;;;;;21.54;58.93;100814.88;5037985;28;45438;-74
2023/05/22 10:46:02;;;;;;;;;28.50;28.25;;;;;21.58;59.09;100813.63;5036932;28;45378;-74
2023/05/22 10:48:27;;;;;;;;;26.50;26.50;;;;;21.64;58.23;100810.47;5035925;28;46627;-79
2023/05/22 10:50:53;;;;;;;;;24.50;24.50;;;;;21.65;58.89;100812.19;5037867;28;45248;-78
2023/05/22 10:53:21;;;;;;;;;24.00;23.50;;;;;21.72;59.13;100813.38;5037952;28;45232;-77
2023/05/22 10:55:57;;;;;;;;;22.75;21.50;;;;;21.77;58.80;100796.94;5036222;28;45242;-73
2023/05/22 10:58:36;;;;;;;;;25.75;25.75;;;;;21.84;58.68;100802.59;5037004;28;45611;-67
2023/05/22 11:01:15;;;;;;;;;27.50;27.50;;;;;21.78;58.29;100801.31;5037068;28;45513;-80
2023/05/22 11:03:56;;;;;;;;;25.00;25.00;;;;;21.74;58.49;100811.41;5036562;28;45260;-74
2023/05/22 11:06:42;;;;;;;;;30.00;29.25;;;;;21.74;58.45;100800.69;5036402;28;45323;-75
2023/05/22 11:09:23;;;;;;;;;23.75;23.50;;;;;21.60;58.37;100780.41;5036672;28;45477;-76